CheckWX is a tool to help pilots better visualize weather data.  It is not intended as a substitute for an official pre-flight weather briefing.

09:01:05 UTC

EFKT TAF
Kittila Airport
Kittila, Finland
TAF EFKT 180838Z 1809/1818 03003KT CAVOK TEMPO 1809/1812 5000 BECMG 1812/1814 4000 -SN TEMPO 1814/1815 1200 SN VV008

Feb-18@
09:00 UTC

Feb-18 @ 09:00 UTC

Feb-18@
12:00 UTC

Feb-18 @ 12:00 UTC

TAF EFKT 180838Z 1809/1818 03003KT CAVOK
Wind
  • 030° at 3 KTS
Conditions
No significant weather
Cloud Levels
  • No significant clouds

Feb-18@
09:00 UTC

Feb-18 @ 09:00 UTC

Feb-18@
12:00 UTC

Feb-18 @ 12:00 UTC

TEMPO 1809/1812 5000

Temporary

Temporary Changes expected for less than half the time period

Feb-18@
12:00 UTC

Feb-18 @ 12:00 UTC

Feb-18@
18:00 UTC

Feb-18 @ 18:00 UTC

BECMG 1812/1814 4000 -SN

Becoming

Becoming Conditions expected by Tue, Feb 18, 2020 @ 14:00 UTC

Wind
  • 030° at 3 KTS
Conditions
Light Snow
Cloud Levels
  • No significant clouds

Feb-18@
14:00 UTC

Feb-18 @ 14:00 UTC

Feb-18@
15:00 UTC

Feb-18 @ 15:00 UTC

TEMPO 1814/1815 1200 SN VV008

Temporary

Temporary Changes expected for less than half the time period

Conditions
Snow
Cloud Levels
  • Vertical visibility at 800' AGL